createdAt,value
2023-04-30T00:00:27.746Z,98045.50
2023-04-30T00:02:54.849Z,98045.71
2023-04-30T00:05:21.773Z,98043.55
2023-04-30T00:07:48.626Z,98042.75
2023-04-30T00:10:15.590Z,98038.27
2023-04-30T00:12:42.497Z,98032.73
2023-04-30T00:15:09.793Z,98031.00
2023-04-30T00:17:36.710Z,98030.56
2023-04-30T00:20:04.363Z,98030.08
2023-04-30T00:22:31.254Z,98027.04
2023-04-30T00:24:58.240Z,98030.59
2023-04-30T00:27:25.128Z,98032.35
2023-04-30T00:29:52.301Z,98033.42
2023-04-30T00:32:24.345Z,98029.00
2023-04-30T00:34:51.686Z,98028.92
2023-04-30T00:37:18.535Z,98029.02
2023-04-30T00:39:45.472Z,98026.00
2023-04-30T00:42:12.423Z,98027.81
2023-04-30T00:44:39.320Z,98025.71
2023-04-30T00:47:06.309Z,98023.64
2023-04-30T00:49:33.409Z,98023.23
2023-04-30T00:52:01.430Z,98019.13
2023-04-30T00:54:28.418Z,98018.90
2023-04-30T00:56:55.584Z,98015.70
2023-04-30T00:59:22.405Z,98020.91
2023-04-30T01:01:49.334Z,98017.83
2023-04-30T01:04:16.223Z,98020.20
2023-04-30T01:06:43.490Z,98019.27
2023-04-30T01:09:10.629Z,98019.33
2023-04-30T01:11:45.103Z,98016.50
2023-04-30T01:14:25.406Z,98016.86
2023-04-30T01:19:38.429Z,98016.83
2023-04-30T01:22:05.671Z,98019.61
2023-04-30T01:24:41.950Z,98020.14
2023-04-30T01:27:46.466Z,98016.89
2023-04-30T01:30:13.764Z,98014.92
2023-04-30T01:32:40.776Z,98011.80
2023-04-30T01:35:07.890Z,98011.11
2023-04-30T01:37:51.702Z,98010.79
2023-04-30T01:40:29.755Z,98010.21
2023-04-30T01:43:05.271Z,98013.50
2023-04-30T01:45:56.871Z,98013.27
2023-04-30T01:48:42.918Z,98012.07
2023-04-30T01:51:42.928Z,98012.89
2023-04-30T01:54:24.402Z,98007.08
2023-04-30T01:57:07.344Z,98005.27
2023-04-30T01:59:38.970Z,98004.70
2023-04-30T02:02:06.444Z,98006.27
2023-04-30T02:04:33.460Z,98008.19
2023-04-30T02:07:00.465Z,98005.76
2023-04-30T02:09:27.715Z,98004.03
2023-04-30T02:11:54.586Z,98003.89
2023-04-30T02:14:21.482Z,98003.52
2023-04-30T02:16:52.457Z,98004.71
2023-04-30T02:19:19.369Z,98004.52
2023-04-30T02:21:46.306Z,98007.44
2023-04-30T02:24:13.232Z,98002.13
2023-04-30T02:26:40.116Z,98003.45
2023-04-30T02:35:55.280Z,98004.36
2023-04-30T02:38:22.330Z,98001.80
2023-04-30T02:40:49.281Z,97999.06
2023-04-30T02:43:16.217Z,98001.92
2023-04-30T02:45:43.295Z,98004.20
2023-04-30T02:48:10.191Z,98005.31
2023-04-30T02:50:37.095Z,98010.08
2023-04-30T02:53:03.996Z,98008.22
2023-04-30T02:55:32.968Z,98007.67
2023-04-30T02:57:59.931Z,98007.59
2023-04-30T03:00:27.323Z,98013.48
2023-04-30T03:02:54.419Z,98013.35
2023-04-30T03:05:21.679Z,98013.70
2023-04-30T03:07:48.557Z,98018.15
2023-04-30T03:10:16.326Z,98020.85
2023-04-30T03:12:43.221Z,98022.67
2023-04-30T03:15:10.845Z,98024.05
2023-04-30T03:17:37.874Z,98024.41
2023-04-30T03:20:05.214Z,98021.78
2023-04-30T03:22:32.097Z,98027.16
2023-04-30T03:24:59.065Z,98026.88
2023-04-30T03:27:26.380Z,98030.05
2023-04-30T03:29:53.351Z,98029.15
2023-04-30T03:32:20.398Z,98028.61
2023-04-30T03:34:47.389Z,98028.53
2023-04-30T03:37:14.313Z,98032.64
2023-04-30T03:39:41.416Z,98038.92
2023-04-30T03:42:08.459Z,98038.22
2023-04-30T03:44:35.740Z,98037.50
2023-04-30T03:47:02.619Z,98036.36
2023-04-30T03:49:29.458Z,98036.66
2023-04-30T03:51:56.637Z,98036.83
2023-04-30T03:54:23.606Z,98037.27
2023-04-30T03:56:50.527Z,98045.54
2023-04-30T03:59:17.579Z,98048.17
2023-04-30T04:01:44.660Z,98048.24
2023-04-30T04:06:58.386Z,98044.52
2023-04-30T04:09:25.281Z,98042.20
2023-04-30T04:11:52.236Z,98043.05
2023-04-30T04:14:19.340Z,98045.10
2023-04-30T04:16:46.989Z,98050.00
2023-04-30T04:19:14.099Z,98051.95
2023-04-30T04:21:41.041Z,98051.75
2023-04-30T04:24:13.660Z,98053.34
2023-04-30T04:26:41.597Z,98054.35
2023-04-30T04:29:12.338Z,98051.64
2023-04-30T04:31:41.797Z,98048.93
2023-04-30T04:34:08.727Z,98052.21
2023-04-30T04:36:36.826Z,98055.85
2023-04-30T04:39:04.189Z,98053.69
2023-04-30T04:41:32.924Z,98051.38
2023-04-30T04:44:01.982Z,98047.69
2023-04-30T04:46:30.426Z,98053.78
2023-04-30T04:48:58.194Z,98050.34
2023-04-30T04:51:25.168Z,98051.48
2023-04-30T04:53:52.101Z,98056.04
2023-04-30T04:56:19.148Z,98058.36
2023-04-30T04:58:46.529Z,98060.06
2023-04-30T05:01:13.608Z,98060.98
2023-04-30T05:03:40.721Z,98061.88
2023-04-30T05:06:07.926Z,98064.21
2023-04-30T05:08:34.920Z,98063.53
2023-04-30T05:11:01.975Z,98063.44
2023-04-30T05:13:28.941Z,98060.85
2023-04-30T05:15:56.576Z,98061.05
2023-04-30T05:18:23.583Z,98059.11
2023-04-30T05:20:50.743Z,98060.21
2023-04-30T05:23:17.663Z,98056.62
2023-04-30T05:25:44.518Z,98059.34
2023-04-30T05:28:11.827Z,98060.45
2023-04-30T05:30:38.848Z,98061.30
2023-04-30T05:33:05.725Z,98064.56
2023-04-30T05:35:36.255Z,98061.55
2023-04-30T05:38:04.155Z,98065.91
2023-04-30T05:40:31.241Z,98065.52
2023-04-30T05:42:58.152Z,98069.69
2023-04-30T05:45:25.121Z,98063.46
2023-04-30T05:47:52.102Z,98063.48
2023-04-30T05:50:19.153Z,98061.48
2023-04-30T05:52:46.233Z,98066.14
2023-04-30T05:55:13.516Z,98064.08
2023-04-30T05:57:40.612Z,98063.50
2023-04-30T06:00:08.251Z,98065.02
2023-04-30T06:02:41.492Z,98066.73
2023-04-30T06:05:09.107Z,98067.75
2023-04-30T06:07:36.040Z,98068.05
2023-04-30T06:10:03.458Z,98070.08
2023-04-30T06:12:30.318Z,98069.34
2023-04-30T06:14:57.696Z,98069.76
2023-04-30T06:17:24.789Z,98068.19
2023-04-30T06:19:52.065Z,98066.75
2023-04-30T06:22:19.118Z,98066.92
2023-04-30T06:24:46.025Z,98064.42
2023-04-30T06:27:13.052Z,98068.92
2023-04-30T06:29:40.137Z,98068.95
2023-04-30T06:32:08.547Z,98070.65
2023-04-30T06:34:36.542Z,98067.86
2023-04-30T06:37:03.683Z,98071.65
2023-04-30T06:39:30.890Z,98069.43
2023-04-30T06:41:58.189Z,98067.77
2023-04-30T06:44:25.446Z,98067.73
2023-04-30T06:46:52.540Z,98068.95
2023-04-30T06:49:19.549Z,98068.38
2023-04-30T06:51:46.428Z,98071.84
2023-04-30T06:54:14.448Z,98071.23
2023-04-30T06:56:41.532Z,98077.39
2023-04-30T06:59:08.995Z,98072.88
2023-04-30T07:01:35.945Z,98069.70
2023-04-30T07:04:02.957Z,98073.15
2023-04-30T07:06:30.827Z,98068.46
2023-04-30T07:08:57.898Z,98065.70
2023-04-30T07:11:24.903Z,98065.68
2023-04-30T07:13:51.833Z,98061.48
2023-04-30T07:16:18.723Z,98062.58
2023-04-30T07:18:48.977Z,98061.19
2023-04-30T07:21:16.512Z,98054.71
2023-04-30T07:23:44.337Z,98057.20
2023-04-30T07:26:11.372Z,98059.39
2023-04-30T07:28:38.251Z,98058.48
2023-04-30T07:31:05.313Z,98054.81
2023-04-30T07:33:32.203Z,98057.88
2023-04-30T07:35:59.217Z,98056.80
2023-04-30T07:38:26.033Z,98058.48
2023-04-30T07:40:53.029Z,98059.05
2023-04-30T07:43:19.940Z,98055.77
2023-04-30T07:45:46.972Z,98056.02
2023-04-30T07:48:13.895Z,98057.29
2023-04-30T07:50:40.965Z,98059.46
2023-04-30T07:53:09.636Z,98054.56
2023-04-30T07:55:36.638Z,98060.58
2023-04-30T07:58:04.563Z,98058.38
2023-04-30T08:00:31.510Z,98056.44
2023-04-30T08:02:59.265Z,98054.55
2023-04-30T08:05:28.025Z,98054.42
2023-04-30T08:07:54.895Z,98050.48
2023-04-30T08:10:21.911Z,98050.21
2023-04-30T08:12:48.994Z,98052.02
2023-04-30T08:15:15.839Z,98051.27
2023-04-30T08:17:43.021Z,98053.33
2023-04-30T08:20:10.774Z,98051.53
2023-04-30T08:22:37.626Z,98053.11
2023-04-30T08:25:04.787Z,98056.35
2023-04-30T08:27:32.468Z,98056.70
2023-04-30T08:29:59.471Z,98051.14
2023-04-30T08:32:26.436Z,98049.34
2023-04-30T08:34:53.651Z,98046.18
2023-04-30T08:37:20.920Z,98045.31
2023-04-30T08:39:47.887Z,98043.30
2023-04-30T08:42:15.325Z,98038.73
2023-04-30T08:44:44.057Z,98040.33
2023-04-30T08:47:13.351Z,98043.80
2023-04-30T08:49:41.137Z,98043.50
2023-04-30T08:52:08.614Z,98035.77
2023-04-30T08:54:38.800Z,98038.11
2023-04-30T08:57:05.919Z,98034.89
2023-04-30T08:59:32.717Z,98038.20
2023-04-30T09:02:03.012Z,98036.77
2023-04-30T09:04:30.784Z,98037.33
2023-04-30T09:06:59.462Z,98039.00
2023-04-30T09:09:30.739Z,98033.13
2023-04-30T09:12:16.898Z,98036.01
2023-04-30T09:15:02.437Z,98032.55
2023-04-30T09:17:29.789Z,98026.05
2023-04-30T09:20:13.059Z,98030.95
2023-04-30T09:22:40.310Z,98030.56
2023-04-30T09:25:08.172Z,98027.13
2023-04-30T09:27:35.089Z,98025.27
2023-04-30T09:30:02.075Z,98025.04
2023-04-30T09:32:29.192Z,98024.16
2023-04-30T09:34:56.094Z,98026.41
2023-04-30T09:37:22.985Z,98018.91
2023-04-30T09:39:56.692Z,98019.58
2023-04-30T09:42:23.836Z,98011.98
2023-04-30T09:44:53.432Z,98009.05
2023-04-30T09:47:21.092Z,98005.29
2023-04-30T09:49:48.638Z,98005.43
2023-04-30T09:52:15.756Z,98009.30
2023-04-30T09:54:42.599Z,98004.34
2023-04-30T09:57:11.193Z,98001.98
2023-04-30T09:59:39.823Z,98002.44
2023-04-30T10:02:07.742Z,97997.70
2023-04-30T10:04:39.744Z,97996.44
2023-04-30T10:07:15.406Z,98001.89
2023-04-30T10:09:57.706Z,98001.37
2023-04-30T10:12:27.444Z,97998.92
2023-04-30T10:15:15.140Z,97993.45
2023-04-30T10:17:42.636Z,97993.46
2023-04-30T10:20:10.615Z,97988.16
2023-04-30T10:22:37.492Z,97983.94
2023-04-30T10:25:04.743Z,97976.30
2023-04-30T10:27:33.184Z,97975.86
2023-04-30T10:30:00.054Z,97975.70
2023-04-30T10:32:32.375Z,97973.88
2023-04-30T10:35:06.445Z,97977.39
2023-04-30T10:38:22.094Z,97982.39
2023-04-30T10:40:49.114Z,97981.60
2023-04-30T10:43:18.829Z,97973.59
2023-04-30T10:45:46.329Z,97973.02
2023-04-30T10:48:14.679Z,97973.07
2023-04-30T10:50:46.295Z,97972.08
2023-04-30T10:53:16.223Z,97977.10
2023-04-30T10:55:47.176Z,97974.52
2023-04-30T10:58:36.834Z,97971.55
2023-04-30T11:01:09.592Z,97972.06
2023-04-30T11:03:37.386Z,97975.17
2023-04-30T11:06:26.688Z,97974.89
2023-04-30T11:08:53.626Z,97975.19
2023-04-30T11:11:24.033Z,97977.67
2023-04-30T11:14:01.441Z,97981.70
2023-04-30T11:16:33.572Z,97979.30
2023-04-30T11:19:11.641Z,97976.73
2023-04-30T11:21:44.750Z,97975.80
2023-04-30T11:24:11.713Z,97967.53
2023-04-30T11:27:04.649Z,97969.17
2023-04-30T11:29:32.154Z,97959.32
2023-04-30T11:32:02.439Z,97962.54
2023-04-30T11:34:29.383Z,97964.34
2023-04-30T11:36:57.039Z,97964.72
2023-04-30T11:39:24.798Z,97968.20
2023-04-30T11:41:51.628Z,97964.08
2023-04-30T11:44:27.853Z,97964.86
2023-04-30T11:46:55.009Z,97969.80
2023-04-30T11:49:21.915Z,97969.44
2023-04-30T11:51:49.993Z,97964.27
2023-04-30T11:54:16.883Z,97964.09
2023-04-30T11:56:50.282Z,97961.61
2023-04-30T11:59:17.687Z,97965.13
2023-04-30T12:01:44.758Z,97955.49
2023-04-30T12:04:16.760Z,97959.05
2023-04-30T12:06:43.842Z,97957.48
2023-04-30T12:09:11.803Z,97956.73
2023-04-30T12:11:38.907Z,97958.19
2023-04-30T12:14:12.917Z,97957.76
2023-04-30T12:16:50.529Z,97952.34
2023-04-30T12:19:22.050Z,97950.50
2023-04-30T12:21:49.184Z,97951.44
2023-04-30T12:24:17.244Z,97948.53
2023-04-30T12:26:44.303Z,97948.79
2023-04-30T12:29:15.905Z,97947.58
2023-04-30T12:31:43.276Z,97946.79
2023-04-30T12:34:12.324Z,97944.64
2023-04-30T12:36:42.565Z,97940.91
2023-04-30T12:39:13.700Z,97939.53
2023-04-30T12:41:44.847Z,97946.79
2023-04-30T12:44:22.201Z,97945.47
2023-04-30T12:46:49.951Z,97948.93
2023-04-30T12:49:43.351Z,97939.44
2023-04-30T12:52:11.618Z,97935.18
2023-04-30T12:54:38.901Z,97934.83
2023-04-30T12:57:07.688Z,97941.20
2023-04-30T12:59:52.011Z,97935.13
2023-04-30T13:02:18.954Z,97937.16
2023-04-30T13:04:45.962Z,97939.23
2023-04-30T13:07:12.970Z,97943.70
2023-04-30T13:09:39.860Z,97943.92
2023-04-30T13:12:07.292Z,97940.67
2023-04-30T13:14:34.226Z,97935.89
2023-04-30T13:17:05.000Z,97931.69
2023-04-30T13:19:31.928Z,97937.16
2023-04-30T13:21:59.050Z,97937.27
2023-04-30T13:24:28.169Z,97934.17
2023-04-30T13:26:55.096Z,97934.77
2023-04-30T13:29:22.019Z,97938.44
2023-04-30T13:31:49.199Z,97938.17
2023-04-30T13:34:16.434Z,97936.64
2023-04-30T13:36:43.386Z,97936.27
2023-04-30T13:39:10.333Z,97937.55
2023-04-30T13:41:37.344Z,97936.84
2023-04-30T13:44:04.378Z,97936.95
2023-04-30T13:46:31.433Z,97938.43
2023-04-30T13:48:58.486Z,97942.32
2023-04-30T13:51:25.455Z,97943.57
2023-04-30T13:53:52.823Z,97941.30
2023-04-30T13:56:19.703Z,97939.54
2023-04-30T13:58:46.700Z,97941.46
2023-04-30T14:01:14.644Z,97944.30
2023-04-30T14:03:41.719Z,97945.71
2023-04-30T14:06:08.893Z,97942.57
2023-04-30T14:08:35.745Z,97947.66
2023-04-30T14:11:02.592Z,97949.00
2023-04-30T14:13:29.794Z,97949.77
2023-04-30T14:15:56.680Z,97948.91
2023-04-30T14:18:23.623Z,97947.16
2023-04-30T14:20:51.067Z,97949.83
2023-04-30T14:23:18.014Z,97944.91
2023-04-30T14:25:44.889Z,97941.02
2023-04-30T14:28:12.104Z,97946.55
2023-04-30T14:30:39.012Z,97943.58
2023-04-30T14:33:06.661Z,97946.56
2023-04-30T14:35:33.699Z,97946.73
2023-04-30T14:38:00.722Z,97948.77
2023-04-30T14:40:27.762Z,97950.94
2023-04-30T14:42:54.638Z,97952.27
2023-04-30T14:45:21.501Z,97954.37
2023-04-30T14:47:48.866Z,97953.71
2023-04-30T14:50:15.954Z,97955.50
2023-04-30T14:52:43.176Z,97957.52
2023-04-30T14:55:10.076Z,97954.28
2023-04-30T14:57:36.950Z,97954.27
2023-04-30T15:00:04.528Z,97963.73
2023-04-30T15:02:31.739Z,97964.88
2023-04-30T15:04:58.661Z,97962.85
2023-04-30T15:07:25.593Z,97962.88
2023-04-30T15:09:52.937Z,97966.39
2023-04-30T15:12:20.207Z,97968.17
2023-04-30T15:14:47.132Z,97968.81
2023-04-30T15:17:14.258Z,97966.77
2023-04-30T15:19:41.118Z,97969.09
2023-04-30T15:22:07.965Z,97969.33
2023-04-30T15:24:35.033Z,97968.54
2023-04-30T15:27:02.009Z,97967.14
2023-04-30T15:29:28.883Z,97967.48
2023-04-30T15:31:55.890Z,97971.63
2023-04-30T15:34:22.984Z,97971.81
2023-04-30T15:36:49.940Z,97974.59
2023-04-30T15:39:17.914Z,97976.89
2023-04-30T15:41:45.028Z,97979.61
2023-04-30T15:44:12.024Z,97981.21
2023-04-30T15:46:38.927Z,97979.95
2023-04-30T15:49:05.856Z,97978.83
2023-04-30T15:51:35.277Z,97981.28
2023-04-30T15:54:02.616Z,97988.80
2023-04-30T15:56:29.566Z,97989.98
2023-04-30T15:58:57.143Z,97987.40
2023-04-30T16:01:24.123Z,97992.98
2023-04-30T16:03:51.399Z,97991.15
2023-04-30T16:06:18.601Z,97991.58
2023-04-30T16:08:46.583Z,97994.70
2023-04-30T16:11:13.708Z,97993.82
2023-04-30T16:13:40.594Z,97998.70
2023-04-30T16:16:08.908Z,98001.71
2023-04-30T16:18:35.956Z,97996.80
2023-04-30T16:21:02.826Z,98002.20
2023-04-30T16:24:25.405Z,98000.38
2023-04-30T16:26:52.306Z,98003.31
2023-04-30T16:29:19.411Z,98005.01
2023-04-30T16:31:47.974Z,98010.08
2023-04-30T16:34:14.956Z,98009.47
2023-04-30T16:36:42.013Z,98009.36
2023-04-30T16:39:08.875Z,98009.27
2023-04-30T16:41:35.823Z,98012.30
2023-04-30T16:44:02.778Z,98011.71
2023-04-30T16:46:29.887Z,98011.98
2023-04-30T16:48:56.981Z,98015.73
2023-04-30T16:51:23.934Z,98018.06
2023-04-30T16:58:08.334Z,98025.56
2023-04-30T17:00:35.783Z,98031.10
2023-04-30T17:07:38.277Z,98042.66
2023-04-30T17:10:06.326Z,98044.60
2023-04-30T17:12:33.503Z,98051.32
2023-04-30T17:16:22.361Z,98053.91
2023-04-30T17:18:49.352Z,98057.21
2023-04-30T17:21:16.326Z,98058.06
2023-04-30T17:23:43.289Z,98063.30
2023-04-30T17:26:10.203Z,98067.36
2023-04-30T17:28:37.552Z,98071.13
2023-04-30T17:31:07.283Z,98071.02
2023-04-30T17:33:34.416Z,98078.30
2023-04-30T17:36:01.463Z,98080.36
2023-04-30T17:38:28.449Z,98085.03
2023-04-30T17:40:58.012Z,98092.95
2023-04-30T17:43:25.057Z,98094.19
2023-04-30T17:45:53.612Z,98095.86
2023-04-30T17:48:20.729Z,98099.72
2023-04-30T17:50:47.824Z,98105.41
2023-04-30T17:53:14.765Z,98102.61
2023-04-30T17:55:41.841Z,98113.09
2023-04-30T17:58:11.777Z,98120.23
2023-04-30T18:00:39.545Z,98123.66
2023-04-30T18:03:06.994Z,98127.73
2023-04-30T18:05:35.621Z,98129.98
2023-04-30T18:08:03.058Z,98133.41
2023-04-30T18:10:30.009Z,98138.16
2023-04-30T18:13:00.030Z,98141.08
2023-04-30T18:15:27.626Z,98149.34
2023-04-30T18:18:00.362Z,98153.70
2023-04-30T18:20:28.244Z,98153.87
2023-04-30T18:22:55.157Z,98165.90
2023-04-30T18:25:22.816Z,98165.98
2023-04-30T18:27:51.552Z,98167.02
2023-04-30T18:30:18.593Z,98171.73
2023-04-30T18:32:45.600Z,98172.24
2023-04-30T18:35:12.508Z,98179.29
2023-04-30T18:37:44.272Z,98182.73
2023-04-30T18:40:11.790Z,98187.48
2023-04-30T18:42:38.883Z,98194.73
2023-04-30T18:45:06.820Z,98197.96
2023-04-30T18:47:33.794Z,98199.62
2023-04-30T18:50:00.733Z,98207.05
2023-04-30T18:52:27.992Z,98211.17
2023-04-30T18:54:55.561Z,98216.45
2023-04-30T18:57:22.626Z,98213.58
2023-04-30T18:59:49.542Z,98218.17
2023-04-30T19:02:16.564Z,98217.54
2023-04-30T19:04:43.537Z,98220.65
2023-04-30T19:07:10.564Z,98223.63
2023-04-30T19:09:37.494Z,98227.04
2023-04-30T19:12:04.600Z,98225.13
2023-04-30T19:14:31.823Z,98228.90
2023-04-30T19:17:00.373Z,98231.89
2023-04-30T19:19:27.990Z,98230.98
2023-04-30T19:21:54.924Z,98230.96
2023-04-30T19:24:22.787Z,98241.66
2023-04-30T19:26:50.974Z,98243.65
2023-04-30T19:29:19.848Z,98250.36
2023-04-30T19:31:46.956Z,98251.61
2023-04-30T19:34:14.236Z,98255.60
2023-04-30T19:36:44.192Z,98257.22
2023-04-30T19:39:12.058Z,98255.95
2023-04-30T19:41:39.305Z,98259.42
2023-04-30T19:44:07.891Z,98260.93
2023-04-30T19:46:35.132Z,98267.41
2023-04-30T19:49:02.117Z,98270.91
2023-04-30T19:51:29.048Z,98274.55
2023-04-30T19:53:59.074Z,98273.76
2023-04-30T19:56:26.536Z,98275.84
2023-04-30T19:58:53.568Z,98277.52
2023-04-30T20:01:20.542Z,98278.38
2023-04-30T20:03:48.763Z,98281.08
2023-04-30T20:06:15.902Z,98284.12
2023-04-30T20:08:47.478Z,98284.02
2023-04-30T20:11:14.879Z,98286.19
2023-04-30T20:13:41.790Z,98288.35
2023-04-30T20:16:12.687Z,98293.21
2023-04-30T20:18:39.922Z,98294.60
2023-04-30T20:21:06.937Z,98294.08
2023-04-30T20:23:34.323Z,98299.73
2023-04-30T20:26:06.177Z,98299.14
2023-04-30T20:28:33.398Z,98301.23
2023-04-30T20:31:00.912Z,98302.30
2023-04-30T20:33:29.103Z,98303.08
2023-04-30T20:35:58.173Z,98308.27
2023-04-30T20:38:25.050Z,98311.29
2023-04-30T20:40:52.036Z,98316.17
2023-04-30T20:43:20.575Z,98321.90
2023-04-30T20:45:48.525Z,98321.42
2023-04-30T20:48:16.214Z,98322.17
2023-04-30T20:50:44.456Z,98323.49
2023-04-30T20:53:12.554Z,98323.55
2023-04-30T20:55:43.791Z,98322.86
2023-04-30T20:58:12.886Z,98320.98
2023-04-30T21:00:39.846Z,98327.33
